sensor_id;sensor_type;location;lat;lon;timestamp;P1;durP1;ratioP1;P2;durP2;ratioP2
55372;SDS011;41249;47.838;16.490;2023-01-19T00:00:27;2.60;;;2.00;;
55372;SDS011;41249;47.838;16.490;2023-01-19T00:02:53;2.20;;;1.75;;
55372;SDS011;41249;47.838;16.490;2023-01-19T00:05:20;2.83;;;2.08;;
55372;SDS011;41249;47.838;16.490;2023-01-19T00:07:47;3.40;;;2.35;;
55372;SDS011;41249;47.838;16.490;2023-01-19T00:10:14;3.05;;;2.30;;
55372;SDS011;41249;47.838;16.490;2023-01-19T00:12:40;2.15;;;1.80;;
55372;SDS011;41249;47.838;16.490;2023-01-19T00:15:07;2.92;;;2.00;;
55372;SDS011;41249;47.838;16.490;2023-01-19T00:17:34;3.30;;;2.17;;
55372;SDS011;41249;47.838;16.490;2023-01-19T00:20:01;2.80;;;2.15;;
55372;SDS011;41249;47.838;16.490;2023-01-19T00:22:29;3.28;;;2.13;;
55372;SDS011;41249;47.838;16.490;2023-01-19T00:24:55;3.80;;;2.05;;
55372;SDS011;41249;47.838;16.490;2023-01-19T00:27:22;2.72;;;2.20;;
55372;SDS011;41249;47.838;16.490;2023-01-19T00:29:48;3.70;;;2.28;;
55372;SDS011;41249;47.838;16.490;2023-01-19T00:32:15;4.55;;;2.55;;
55372;SDS011;41249;47.838;16.490;2023-01-19T00:34:43;3.60;;;2.25;;
55372;SDS011;41249;47.838;16.490;2023-01-19T00:37:15;3.45;;;2.65;;
55372;SDS011;41249;47.838;16.490;2023-01-19T00:39:42;3.85;;;2.22;;
55372;SDS011;41249;47.838;16.490;2023-01-19T00:42:10;2.55;;;2.05;;
55372;SDS011;41249;47.838;16.490;2023-01-19T00:44:56;2.63;;;2.03;;
55372;SDS011;41249;47.838;16.490;2023-01-19T00:47:23;3.72;;;2.58;;
55372;SDS011;41249;47.838;16.490;2023-01-19T00:49:50;3.00;;;2.25;;
55372;SDS011;41249;47.838;16.490;2023-01-19T00:52:17;3.00;;;1.95;;
55372;SDS011;41249;47.838;16.490;2023-01-19T00:54:44;4.68;;;2.40;;
55372;SDS011;41249;47.838;16.490;2023-01-19T00:57:10;4.90;;;3.10;;
55372;SDS011;41249;47.838;16.490;2023-01-19T00:59:37;2.60;;;2.10;;
55372;SDS011;41249;47.838;16.490;2023-01-19T01:02:04;2.90;;;2.08;;
55372;SDS011;41249;47.838;16.490;2023-01-19T01:04:31;3.00;;;2.33;;
55372;SDS011;41249;47.838;16.490;2023-01-19T01:06:57;4.95;;;3.08;;
55372;SDS011;41249;47.838;16.490;2023-01-19T01:09:24;4.10;;;2.88;;
55372;SDS011;41249;47.838;16.490;2023-01-19T01:11:51;5.38;;;2.67;;
55372;SDS011;41249;47.838;16.490;2023-01-19T01:14:17;5.82;;;2.42;;
55372;SDS011;41249;47.838;16.490;2023-01-19T01:16:44;3.63;;;2.35;;
55372;SDS011;41249;47.838;16.490;2023-01-19T01:19:11;3.85;;;2.45;;
55372;SDS011;41249;47.838;16.490;2023-01-19T01:21:37;3.45;;;2.17;;
55372;SDS011;41249;47.838;16.490;2023-01-19T01:24:04;3.97;;;2.60;;
55372;SDS011;41249;47.838;16.490;2023-01-19T01:26:31;5.22;;;3.10;;
55372;SDS011;41249;47.838;16.490;2023-01-19T01:28:58;3.67;;;2.55;;
55372;SDS011;41249;47.838;16.490;2023-01-19T01:31:24;4.80;;;2.63;;
55372;SDS011;41249;47.838;16.490;2023-01-19T01:33:51;3.53;;;2.45;;
55372;SDS011;41249;47.838;16.490;2023-01-19T01:36:18;3.17;;;2.63;;
55372;SDS011;41249;47.838;16.490;2023-01-19T01:38:44;3.15;;;2.45;;
55372;SDS011;41249;47.838;16.490;2023-01-19T01:41:11;3.67;;;2.90;;
55372;SDS011;41249;47.838;16.490;2023-01-19T01:43:48;3.65;;;2.58;;
55372;SDS011;41249;47.838;16.490;2023-01-19T01:46:19;3.95;;;3.00;;
55372;SDS011;41249;47.838;16.490;2023-01-19T01:48:58;3.92;;;2.97;;
55372;SDS011;41249;47.838;16.490;2023-01-19T01:51:41;3.78;;;2.85;;
55372;SDS011;41249;47.838;16.490;2023-01-19T01:54:19;4.53;;;2.80;;
55372;SDS011;41249;47.838;16.490;2023-01-19T01:56:49;4.13;;;3.03;;
55372;SDS011;41249;47.838;16.490;2023-01-19T01:59:33;4.50;;;3.08;;
55372;SDS011;41249;47.838;16.490;2023-01-19T02:02:06;4.57;;;3.05;;
55372;SDS011;41249;47.838;16.490;2023-01-19T02:04:56;4.55;;;3.05;;
55372;SDS011;41249;47.838;16.490;2023-01-19T02:07:35;4.35;;;3.03;;
55372;SDS011;41249;47.838;16.490;2023-01-19T02:10:26;5.63;;;3.13;;
55372;SDS011;41249;47.838;16.490;2023-01-19T02:13:12;3.90;;;2.75;;
55372;SDS011;41249;47.838;16.490;2023-01-19T02:15:51;3.53;;;2.28;;
55372;SDS011;41249;47.838;16.490;2023-01-19T02:18:20;4.35;;;2.95;;
55372;SDS011;41249;47.838;16.490;2023-01-19T02:20:55;6.40;;;3.92;;
55372;SDS011;41249;47.838;16.490;2023-01-19T02:25:57;5.43;;;3.05;;
55372;SDS011;41249;47.838;16.490;2023-01-19T02:28:25;4.80;;;3.40;;
55372;SDS011;41249;47.838;16.490;2023-01-19T02:30:53;4.40;;;3.35;;
55372;SDS011;41249;47.838;16.490;2023-01-19T02:33:20;5.28;;;3.53;;
55372;SDS011;41249;47.838;16.490;2023-01-19T02:35:48;6.90;;;3.88;;
55372;SDS011;41249;47.838;16.490;2023-01-19T02:38:17;4.05;;;3.15;;
55372;SDS011;41249;47.838;16.490;2023-01-19T02:40:45;5.07;;;3.10;;
55372;SDS011;41249;47.838;16.490;2023-01-19T02:43:13;4.82;;;3.50;;
55372;SDS011;41249;47.838;16.490;2023-01-19T02:45:42;3.80;;;2.75;;
55372;SDS011;41249;47.838;16.490;2023-01-19T02:48:09;4.75;;;3.22;;
55372;SDS011;41249;47.838;16.490;2023-01-19T02:50:38;5.63;;;3.85;;
55372;SDS011;41249;47.838;16.490;2023-01-19T02:55:56;5.38;;;3.30;;
55372;SDS011;41249;47.838;16.490;2023-01-19T02:58:48;4.68;;;3.33;;
55372;SDS011;41249;47.838;16.490;2023-01-19T03:04:28;4.57;;;3.17;;
55372;SDS011;41249;47.838;16.490;2023-01-19T03:07:20;7.65;;;3.10;;
55372;SDS011;41249;47.838;16.490;2023-01-19T03:12:46;3.50;;;2.00;;
55372;SDS011;41249;47.838;16.490;2023-01-19T03:15:19;5.03;;;2.50;;
55372;SDS011;41249;47.838;16.490;2023-01-19T03:17:51;3.38;;;2.20;;
55372;SDS011;41249;47.838;16.490;2023-01-19T03:20:20;3.28;;;2.35;;
55372;SDS011;41249;47.838;16.490;2023-01-19T03:22:52;3.38;;;2.50;;
55372;SDS011;41249;47.838;16.490;2023-01-19T03:25:25;4.15;;;2.30;;
55372;SDS011;41249;47.838;16.490;2023-01-19T03:27:56;3.85;;;2.67;;
55372;SDS011;41249;47.838;16.490;2023-01-19T03:30:25;4.15;;;2.88;;
55372;SDS011;41249;47.838;16.490;2023-01-19T03:32:58;3.70;;;2.78;;
55372;SDS011;41249;47.838;16.490;2023-01-19T03:35:29;4.72;;;3.08;;
55372;SDS011;41249;47.838;16.490;2023-01-19T03:38:00;4.32;;;3.15;;
55372;SDS011;41249;47.838;16.490;2023-01-19T03:40:31;4.63;;;3.17;;
55372;SDS011;41249;47.838;16.490;2023-01-19T03:43:00;4.15;;;2.80;;
55372;SDS011;41249;47.838;16.490;2023-01-19T03:45:30;4.95;;;3.30;;
55372;SDS011;41249;47.838;16.490;2023-01-19T03:48:00;4.40;;;3.33;;
55372;SDS011;41249;47.838;16.490;2023-01-19T03:50:28;6.05;;;4.03;;
55372;SDS011;41249;47.838;16.490;2023-01-19T03:53:07;5.78;;;3.38;;
55372;SDS011;41249;47.838;16.490;2023-01-19T03:55:36;5.20;;;3.28;;
55372;SDS011;41249;47.838;16.490;2023-01-19T03:58:04;6.00;;;3.67;;
55372;SDS011;41249;47.838;16.490;2023-01-19T04:00:31;4.63;;;3.10;;
55372;SDS011;41249;47.838;16.490;2023-01-19T04:02:59;5.57;;;3.63;;
55372;SDS011;41249;47.838;16.490;2023-01-19T04:05:26;5.38;;;3.78;;
55372;SDS011;41249;47.838;16.490;2023-01-19T04:07:52;6.88;;;3.80;;
55372;SDS011;41249;47.838;16.490;2023-01-19T04:10:19;5.63;;;3.63;;
55372;SDS011;41249;47.838;16.490;2023-01-19T04:12:46;4.07;;;3.08;;
55372;SDS011;41249;47.838;16.490;2023-01-19T04:15:14;5.45;;;3.63;;
55372;SDS011;41249;47.838;16.490;2023-01-19T04:17:41;5.10;;;3.65;;
55372;SDS011;41249;47.838;16.490;2023-01-19T04:20:07;5.78;;;4.38;;
55372;SDS011;41249;47.838;16.490;2023-01-19T04:22:34;6.25;;;4.10;;
55372;SDS011;41249;47.838;16.490;2023-01-19T04:25:01;6.55;;;3.90;;
55372;SDS011;41249;47.838;16.490;2023-01-19T04:27:28;7.50;;;4.20;;
55372;SDS011;41249;47.838;16.490;2023-01-19T04:29:55;8.10;;;4.10;;
55372;SDS011;41249;47.838;16.490;2023-01-19T04:32:21;7.28;;;4.00;;
55372;SDS011;41249;47.838;16.490;2023-01-19T04:34:48;7.22;;;4.30;;
55372;SDS011;41249;47.838;16.490;2023-01-19T04:37:15;5.57;;;4.28;;
55372;SDS011;41249;47.838;16.490;2023-01-19T04:39:41;6.22;;;4.28;;
55372;SDS011;41249;47.838;16.490;2023-01-19T04:42:08;7.10;;;5.53;;
55372;SDS011;41249;47.838;16.490;2023-01-19T04:44:35;6.43;;;4.32;;
55372;SDS011;41249;47.838;16.490;2023-01-19T04:47:01;5.97;;;4.18;;
55372;SDS011;41249;47.838;16.490;2023-01-19T04:49:28;5.53;;;3.95;;
55372;SDS011;41249;47.838;16.490;2023-01-19T04:51:55;5.90;;;4.20;;
55372;SDS011;41249;47.838;16.490;2023-01-19T04:54:21;6.07;;;4.55;;
55372;SDS011;41249;47.838;16.490;2023-01-19T04:56:48;7.00;;;4.53;;
55372;SDS011;41249;47.838;16.490;2023-01-19T04:59:15;9.82;;;3.95;;
55372;SDS011;41249;47.838;16.490;2023-01-19T05:01:41;8.73;;;4.95;;
55372;SDS011;41249;47.838;16.490;2023-01-19T05:04:08;5.75;;;4.22;;
55372;SDS011;41249;47.838;16.490;2023-01-19T05:06:35;6.03;;;3.72;;
55372;SDS011;41249;47.838;16.490;2023-01-19T05:09:02;9.25;;;4.90;;
55372;SDS011;41249;47.838;16.490;2023-01-19T05:11:29;5.93;;;3.95;;
55372;SDS011;41249;47.838;16.490;2023-01-19T05:13:56;6.68;;;4.15;;
55372;SDS011;41249;47.838;16.490;2023-01-19T05:16:22;7.20;;;5.28;;
55372;SDS011;41249;47.838;16.490;2023-01-19T05:18:49;6.72;;;4.32;;
55372;SDS011;41249;47.838;16.490;2023-01-19T05:21:16;6.63;;;4.32;;
55372;SDS011;41249;47.838;16.490;2023-01-19T05:23:42;7.72;;;4.40;;
55372;SDS011;41249;47.838;16.490;2023-01-19T05:26:09;7.22;;;5.18;;
55372;SDS011;41249;47.838;16.490;2023-01-19T05:28:36;6.30;;;3.72;;
55372;SDS011;41249;47.838;16.490;2023-01-19T05:31:03;6.97;;;4.20;;
55372;SDS011;41249;47.838;16.490;2023-01-19T05:33:30;7.45;;;4.18;;
55372;SDS011;41249;47.838;16.490;2023-01-19T05:35:56;8.40;;;5.65;;
55372;SDS011;41249;47.838;16.490;2023-01-19T05:38:23;7.80;;;4.57;;
55372;SDS011;41249;47.838;16.490;2023-01-19T05:41:00;8.85;;;5.32;;
55372;SDS011;41249;47.838;16.490;2023-01-19T05:43:27;9.60;;;6.57;;
55372;SDS011;41249;47.838;16.490;2023-01-19T05:45:53;8.27;;;4.63;;
55372;SDS011;41249;47.838;16.490;2023-01-19T05:48:20;8.40;;;4.20;;
55372;SDS011;41249;47.838;16.490;2023-01-19T05:50:46;24.83;;;10.55;;
55372;SDS011;41249;47.838;16.490;2023-01-19T05:53:15;13.23;;;6.80;;
55372;SDS011;41249;47.838;16.490;2023-01-19T05:55:42;21.25;;;8.70;;
55372;SDS011;41249;47.838;16.490;2023-01-19T05:58:08;13.43;;;6.95;;
55372;SDS011;41249;47.838;16.490;2023-01-19T06:00:35;12.25;;;5.32;;
55372;SDS011;41249;47.838;16.490;2023-01-19T06:03:02;16.35;;;8.13;;
55372;SDS011;41249;47.838;16.490;2023-01-19T06:05:29;9.18;;;5.47;;
55372;SDS011;41249;47.838;16.490;2023-01-19T06:07:56;10.00;;;5.45;;
55372;SDS011;41249;47.838;16.490;2023-01-19T06:10:22;10.52;;;5.57;;
55372;SDS011;41249;47.838;16.490;2023-01-19T06:12:49;9.88;;;5.65;;
55372;SDS011;41249;47.838;16.490;2023-01-19T06:15:17;12.18;;;6.22;;
55372;SDS011;41249;47.838;16.490;2023-01-19T06:17:44;7.95;;;4.53;;
55372;SDS011;41249;47.838;16.490;2023-01-19T06:20:11;9.65;;;6.35;;
55372;SDS011;41249;47.838;16.490;2023-01-19T06:22:39;17.70;;;8.23;;
55372;SDS011;41249;47.838;16.490;2023-01-19T06:25:05;14.77;;;7.00;;
55372;SDS011;41249;47.838;16.490;2023-01-19T06:27:32;11.23;;;6.65;;
55372;SDS011;41249;47.838;16.490;2023-01-19T06:29:59;10.35;;;6.28;;
55372;SDS011;41249;47.838;16.490;2023-01-19T06:32:26;11.80;;;7.10;;
55372;SDS011;41249;47.838;16.490;2023-01-19T06:34:52;12.13;;;7.70;;
55372;SDS011;41249;47.838;16.490;2023-01-19T06:37:19;10.65;;;6.43;;
55372;SDS011;41249;47.838;16.490;2023-01-19T06:39:46;9.68;;;5.85;;
55372;SDS011;41249;47.838;16.490;2023-01-19T06:42:12;9.57;;;6.57;;
55372;SDS011;41249;47.838;16.490;2023-01-19T06:44:39;10.52;;;6.90;;
55372;SDS011;41249;47.838;16.490;2023-01-19T06:47:13;10.35;;;6.30;;
55372;SDS011;41249;47.838;16.490;2023-01-19T06:49:41;11.60;;;7.07;;
55372;SDS011;41249;47.838;16.490;2023-01-19T06:52:09;13.82;;;9.00;;
55372;SDS011;41249;47.838;16.490;2023-01-19T06:54:36;11.02;;;7.30;;
55372;SDS011;41249;47.838;16.490;2023-01-19T06:57:03;9.63;;;6.43;;
55372;SDS011;41249;47.838;16.490;2023-01-19T06:59:30;9.70;;;6.13;;
55372;SDS011;41249;47.838;16.490;2023-01-19T07:01:57;8.70;;;5.88;;
55372;SDS011;41249;47.838;16.490;2023-01-19T07:04:24;9.90;;;6.40;;
55372;SDS011;41249;47.838;16.490;2023-01-19T07:06:52;11.13;;;7.75;;
55372;SDS011;41249;47.838;16.490;2023-01-19T07:09:18;18.00;;;7.18;;
55372;SDS011;41249;47.838;16.490;2023-01-19T07:11:45;9.90;;;6.13;;
55372;SDS011;41249;47.838;16.490;2023-01-19T07:14:13;8.73;;;5.82;;
55372;SDS011;41249;47.838;16.490;2023-01-19T07:16:40;10.63;;;5.80;;
55372;SDS011;41249;47.838;16.490;2023-01-19T07:19:07;11.07;;;6.30;;
55372;SDS011;41249;47.838;16.490;2023-01-19T07:21:36;11.35;;;7.13;;
55372;SDS011;41249;47.838;16.490;2023-01-19T07:24:02;10.18;;;5.97;;
55372;SDS011;41249;47.838;16.490;2023-01-19T07:26:29;9.05;;;6.70;;
55372;SDS011;41249;47.838;16.490;2023-01-19T07:28:56;10.63;;;5.95;;
55372;SDS011;41249;47.838;16.490;2023-01-19T07:31:22;9.90;;;6.00;;
55372;SDS011;41249;47.838;16.490;2023-01-19T07:33:49;11.13;;;6.45;;
55372;SDS011;41249;47.838;16.490;2023-01-19T07:36:15;8.73;;;6.15;;
55372;SDS011;41249;47.838;16.490;2023-01-19T07:38:42;9.70;;;6.05;;
55372;SDS011;41249;47.838;16.490;2023-01-19T07:41:09;7.78;;;5.70;;
55372;SDS011;41249;47.838;16.490;2023-01-19T07:43:36;8.18;;;5.50;;
55372;SDS011;41249;47.838;16.490;2023-01-19T07:46:03;7.43;;;5.28;;
55372;SDS011;41249;47.838;16.490;2023-01-19T07:48:31;10.55;;;5.95;;
55372;SDS011;41249;47.838;16.490;2023-01-19T07:50:59;7.78;;;4.93;;
55372;SDS011;41249;47.838;16.490;2023-01-19T07:53:29;9.40;;;5.63;;
55372;SDS011;41249;47.838;16.490;2023-01-19T07:55:56;7.88;;;5.30;;
55372;SDS011;41249;47.838;16.490;2023-01-19T07:58:23;8.65;;;5.88;;
55372;SDS011;41249;47.838;16.490;2023-01-19T08:00:51;13.70;;;6.75;;
55372;SDS011;41249;47.838;16.490;2023-01-19T08:03:18;8.32;;;5.78;;
55372;SDS011;41249;47.838;16.490;2023-01-19T08:05:48;7.13;;;5.07;;
55372;SDS011;41249;47.838;16.490;2023-01-19T08:08:16;7.00;;;4.45;;
55372;SDS011;41249;47.838;16.490;2023-01-19T08:10:43;7.82;;;4.95;;
55372;SDS011;41249;47.838;16.490;2023-01-19T08:13:10;8.77;;;4.93;;
55372;SDS011;41249;47.838;16.490;2023-01-19T08:15:37;7.10;;;4.50;;
55372;SDS011;41249;47.838;16.490;2023-01-19T08:18:03;8.68;;;5.80;;
55372;SDS011;41249;47.838;16.490;2023-01-19T08:20:31;7.60;;;4.50;;
55372;SDS011;41249;47.838;16.490;2023-01-19T08:22:57;8.98;;;6.13;;
55372;SDS011;41249;47.838;16.490;2023-01-19T08:25:32;9.13;;;4.78;;
55372;SDS011;41249;47.838;16.490;2023-01-19T08:28:03;7.80;;;4.93;;
55372;SDS011;41249;47.838;16.490;2023-01-19T08:30:31;7.13;;;4.38;;
55372;SDS011;41249;47.838;16.490;2023-01-19T08:32:58;7.07;;;5.32;;
55372;SDS011;41249;47.838;16.490;2023-01-19T08:35:40;9.57;;;5.70;;
55372;SDS011;41249;47.838;16.490;2023-01-19T08:38:08;9.02;;;5.30;;
55372;SDS011;41249;47.838;16.490;2023-01-19T08:40:37;8.38;;;5.32;;
55372;SDS011;41249;47.838;16.490;2023-01-19T08:43:06;8.02;;;5.28;;
55372;SDS011;41249;47.838;16.490;2023-01-19T08:45:35;7.57;;;5.28;;
55372;SDS011;41249;47.838;16.490;2023-01-19T08:48:03;7.82;;;5.68;;
55372;SDS011;41249;47.838;16.490;2023-01-19T08:50:31;6.65;;;4.50;;
55372;SDS011;41249;47.838;16.490;2023-01-19T08:52:59;7.15;;;4.95;;
55372;SDS011;41249;47.838;16.490;2023-01-19T08:55:28;7.30;;;5.38;;
55372;SDS011;41249;47.838;16.490;2023-01-19T08:57:56;7.18;;;5.38;;
55372;SDS011;41249;47.838;16.490;2023-01-19T09:00:23;5.93;;;3.88;;
55372;SDS011;41249;47.838;16.490;2023-01-19T09:02:50;8.32;;;5.35;;
55372;SDS011;41249;47.838;16.490;2023-01-19T09:05:17;8.25;;;5.32;;
55372;SDS011;41249;47.838;16.490;2023-01-19T09:07:44;8.88;;;5.30;;
55372;SDS011;41249;47.838;16.490;2023-01-19T09:10:13;8.13;;;5.38;;
55372;SDS011;41249;47.838;16.490;2023-01-19T09:12:41;9.05;;;5.53;;
55372;SDS011;41249;47.838;16.490;2023-01-19T09:15:09;7.78;;;4.97;;
55372;SDS011;41249;47.838;16.490;2023-01-19T09:17:39;7.28;;;4.55;;
55372;SDS011;41249;47.838;16.490;2023-01-19T09:20:09;7.72;;;5.30;;
55372;SDS011;41249;47.838;16.490;2023-01-19T09:22:36;9.10;;;5.20;;
55372;SDS011;41249;47.838;16.490;2023-01-19T09:25:04;8.80;;;5.95;;
55372;SDS011;41249;47.838;16.490;2023-01-19T09:27:32;6.07;;;4.20;;
55372;SDS011;41249;47.838;16.490;2023-01-19T09:30:00;6.72;;;4.97;;
55372;SDS011;41249;47.838;16.490;2023-01-19T09:32:26;10.88;;;5.82;;
55372;SDS011;41249;47.838;16.490;2023-01-19T09:34:53;8.52;;;5.47;;
55372;SDS011;41249;47.838;16.490;2023-01-19T09:37:21;9.18;;;5.63;;
55372;SDS011;41249;47.838;16.490;2023-01-19T09:39:48;7.80;;;5.82;;
55372;SDS011;41249;47.838;16.490;2023-01-19T09:45:01;9.30;;;5.38;;
55372;SDS011;41249;47.838;16.490;2023-01-19T09:47:32;8.23;;;5.25;;
55372;SDS011;41249;47.838;16.490;2023-01-19T09:50:03;7.38;;;5.10;;
55372;SDS011;41249;47.838;16.490;2023-01-19T09:52:34;11.70;;;4.68;;
55372;SDS011;41249;47.838;16.490;2023-01-19T09:55:06;6.32;;;4.57;;
55372;SDS011;41249;47.838;16.490;2023-01-19T09:57:55;7.03;;;4.65;;
55372;SDS011;41249;47.838;16.490;2023-01-19T10:00:22;7.85;;;5.45;;
55372;SDS011;41249;47.838;16.490;2023-01-19T10:02:52;6.00;;;4.28;;
55372;SDS011;41249;47.838;16.490;2023-01-19T10:10:46;6.45;;;4.55;;
55372;SDS011;41249;47.838;16.490;2023-01-19T10:13:20;5.50;;;4.13;;
55372;SDS011;41249;47.838;16.490;2023-01-19T10:18:27;7.10;;;4.45;;
55372;SDS011;41249;47.838;16.490;2023-01-19T10:21:10;8.38;;;4.38;;
55372;SDS011;41249;47.838;16.490;2023-01-19T10:23:46;7.82;;;4.72;;
55372;SDS011;41249;47.838;16.490;2023-01-19T10:28:53;6.90;;;4.43;;
55372;SDS011;41249;47.838;16.490;2023-01-19T10:31:23;6.82;;;4.80;;
55372;SDS011;41249;47.838;16.490;2023-01-19T10:33:50;8.38;;;4.97;;
55372;SDS011;41249;47.838;16.490;2023-01-19T10:36:19;8.65;;;6.05;;
55372;SDS011;41249;47.838;16.490;2023-01-19T10:38:51;7.03;;;4.90;;
55372;SDS011;41249;47.838;16.490;2023-01-19T10:41:18;6.35;;;4.30;;
55372;SDS011;41249;47.838;16.490;2023-01-19T10:43:57;5.25;;;4.07;;
55372;SDS011;41249;47.838;16.490;2023-01-19T10:46:44;4.82;;;3.47;;
55372;SDS011;41249;47.838;16.490;2023-01-19T10:49:25;4.40;;;3.47;;
55372;SDS011;41249;47.838;16.490;2023-01-19T10:54:59;5.82;;;3.72;;
55372;SDS011;41249;47.838;16.490;2023-01-19T10:59:59;5.05;;;2.85;;
55372;SDS011;41249;47.838;16.490;2023-01-19T11:02:27;7.10;;;3.67;;
55372;SDS011;41249;47.838;16.490;2023-01-19T11:04:56;5.95;;;3.33;;
55372;SDS011;41249;47.838;16.490;2023-01-19T11:12:40;7.88;;;4.82;;
55372;SDS011;41249;47.838;16.490;2023-01-19T11:15:13;5.63;;;3.88;;
55372;SDS011;41249;47.838;16.490;2023-01-19T11:17:42;5.78;;;3.53;;
55372;SDS011;41249;47.838;16.490;2023-01-19T11:20:20;5.63;;;3.63;;
55372;SDS011;41249;47.838;16.490;2023-01-19T11:23:02;5.22;;;2.97;;
55372;SDS011;41249;47.838;16.490;2023-01-19T11:25:32;5.72;;;3.92;;
55372;SDS011;41249;47.838;16.490;2023-01-19T11:28:00;8.77;;;3.95;;
55372;SDS011;41249;47.838;16.490;2023-01-19T11:30:28;7.78;;;4.72;;
55372;SDS011;41249;47.838;16.490;2023-01-19T11:32:55;6.78;;;4.47;;
55372;SDS011;41249;47.838;16.490;2023-01-19T11:35:35;6.72;;;4.72;;
55372;SDS011;41249;47.838;16.490;2023-01-19T11:38:25;7.78;;;5.10;;
55372;SDS011;41249;47.838;16.490;2023-01-19T11:40:56;8.52;;;5.32;;
55372;SDS011;41249;47.838;16.490;2023-01-19T11:43:28;7.25;;;4.20;;
55372;SDS011;41249;47.838;16.490;2023-01-19T11:46:13;5.45;;;3.80;;
55372;SDS011;41249;47.838;16.490;2023-01-19T11:48:42;6.00;;;3.90;;
55372;SDS011;41249;47.838;16.490;2023-01-19T11:51:15;4.85;;;3.15;;
55372;SDS011;41249;47.838;16.490;2023-01-19T11:53:48;5.28;;;3.85;;
55372;SDS011;41249;47.838;16.490;2023-01-19T11:56:17;4.70;;;3.60;;
55372;SDS011;41249;47.838;16.490;2023-01-19T11:58:48;5.07;;;3.45;;
55372;SDS011;41249;47.838;16.490;2023-01-19T12:01:22;8.07;;;3.33;;
55372;SDS011;41249;47.838;16.490;2023-01-19T12:04:00;5.03;;;3.20;;
55372;SDS011;41249;47.838;16.490;2023-01-19T12:06:38;4.18;;;2.42;;
55372;SDS011;41249;47.838;16.490;2023-01-19T12:09:17;5.82;;;3.17;;
55372;SDS011;41249;47.838;16.490;2023-01-19T12:12:06;3.95;;;2.50;;
55372;SDS011;41249;47.838;16.490;2023-01-19T12:14:59;4.60;;;3.13;;
55372;SDS011;41249;47.838;16.490;2023-01-19T12:17:32;4.68;;;2.78;;
55372;SDS011;41249;47.838;16.490;2023-01-19T12:23:06;5.00;;;3.40;;
55372;SDS011;41249;47.838;16.490;2023-01-19T12:28:29;5.22;;;3.38;;
55372;SDS011;41249;47.838;16.490;2023-01-19T12:30:58;6.47;;;4.20;;
55372;SDS011;41249;47.838;16.490;2023-01-19T12:36:33;5.65;;;3.97;;
55372;SDS011;41249;47.838;16.490;2023-01-19T12:39:15;5.95;;;3.63;;
55372;SDS011;41249;47.838;16.490;2023-01-19T12:41:46;6.55;;;3.90;;
55372;SDS011;41249;47.838;16.490;2023-01-19T12:44:19;6.75;;;3.63;;
55372;SDS011;41249;47.838;16.490;2023-01-19T12:46:49;8.27;;;4.82;;
55372;SDS011;41249;47.838;16.490;2023-01-19T12:54:52;7.75;;;5.07;;
55372;SDS011;41249;47.838;16.490;2023-01-19T12:57:32;8.55;;;4.30;;
55372;SDS011;41249;47.838;16.490;2023-01-19T13:00:01;6.43;;;4.32;;
55372;SDS011;41249;47.838;16.490;2023-01-19T13:13:17;7.65;;;5.32;;
55372;SDS011;41249;47.838;16.490;2023-01-19T13:15:50;6.50;;;3.95;;
55372;SDS011;41249;47.838;16.490;2023-01-19T13:18:21;5.95;;;4.03;;
55372;SDS011;41249;47.838;16.490;2023-01-19T13:20:58;7.93;;;4.68;;
55372;SDS011;41249;47.838;16.490;2023-01-19T13:26:15;9.75;;;5.43;;
55372;SDS011;41249;47.838;16.490;2023-01-19T13:28:45;6.03;;;4.68;;
55372;SDS011;41249;47.838;16.490;2023-01-19T13:31:15;6.03;;;4.88;;
55372;SDS011;41249;47.838;16.490;2023-01-19T13:33:53;6.15;;;4.43;;
55372;SDS011;41249;47.838;16.490;2023-01-19T13:36:28;6.63;;;4.28;;
55372;SDS011;41249;47.838;16.490;2023-01-19T13:38:59;6.45;;;4.10;;
55372;SDS011;41249;47.838;16.490;2023-01-19T13:41:29;7.38;;;3.78;;
55372;SDS011;41249;47.838;16.490;2023-01-19T13:44:01;8.45;;;5.40;;
55372;SDS011;41249;47.838;16.490;2023-01-19T13:46:32;11.13;;;4.90;;
55372;SDS011;41249;47.838;16.490;2023-01-19T13:49:01;7.68;;;4.72;;
55372;SDS011;41249;47.838;16.490;2023-01-19T13:54:46;8.18;;;5.07;;
55372;SDS011;41249;47.838;16.490;2023-01-19T14:00:05;7.30;;;4.45;;
55372;SDS011;41249;47.838;16.490;2023-01-19T14:03:01;8.82;;;4.05;;
55372;SDS011;41249;47.838;16.490;2023-01-19T14:05:35;7.05;;;5.10;;
55372;SDS011;41249;47.838;16.490;2023-01-19T14:10:35;5.95;;;4.15;;
55372;SDS011;41249;47.838;16.490;2023-01-19T14:13:04;6.05;;;4.05;;
55372;SDS011;41249;47.838;16.490;2023-01-19T14:15:42;5.78;;;4.32;;
55372;SDS011;41249;47.838;16.490;2023-01-19T14:20:39;7.25;;;4.43;;
55372;SDS011;41249;47.838;16.490;2023-01-19T14:23:34;6.00;;;4.00;;
55372;SDS011;41249;47.838;16.490;2023-01-19T14:29:29;7.30;;;5.00;;
55372;SDS011;41249;47.838;16.490;2023-01-19T14:32:06;8.93;;;5.07;;
55372;SDS011;41249;47.838;16.490;2023-01-19T14:37:16;5.75;;;4.13;;
55372;SDS011;41249;47.838;16.490;2023-01-19T14:40:31;6.88;;;3.92;;
55372;SDS011;41249;47.838;16.490;2023-01-19T14:45:35;9.52;;;4.90;;
55372;SDS011;41249;47.838;16.490;2023-01-19T14:50:43;8.80;;;4.55;;
55372;SDS011;41249;47.838;16.490;2023-01-19T14:53:27;4.53;;;3.47;;
55372;SDS011;41249;47.838;16.490;2023-01-19T14:55:56;6.97;;;4.80;;
55372;SDS011;41249;47.838;16.490;2023-01-19T14:58:26;7.05;;;4.03;;
55372;SDS011;41249;47.838;16.490;2023-01-19T15:00:56;5.88;;;3.83;;
55372;SDS011;41249;47.838;16.490;2023-01-19T15:03:24;7.30;;;4.38;;
55372;SDS011;41249;47.838;16.490;2023-01-19T15:06:15;5.13;;;3.58;;
55372;SDS011;41249;47.838;16.490;2023-01-19T15:08:44;6.03;;;3.65;;
55372;SDS011;41249;47.838;16.490;2023-01-19T15:13:47;7.55;;;4.85;;
55372;SDS011;41249;47.838;16.490;2023-01-19T15:16:15;7.57;;;4.30;;
55372;SDS011;41249;47.838;16.490;2023-01-19T15:18:42;6.00;;;4.13;;
55372;SDS011;41249;47.838;16.490;2023-01-19T15:21:14;6.60;;;3.70;;
55372;SDS011;41249;47.838;16.490;2023-01-19T15:23:45;6.90;;;4.18;;
55372;SDS011;41249;47.838;16.490;2023-01-19T15:26:14;6.07;;;3.60;;
55372;SDS011;41249;47.838;16.490;2023-01-19T15:28:43;5.25;;;3.65;;
55372;SDS011;41249;47.838;16.490;2023-01-19T15:31:12;6.95;;;5.13;;
55372;SDS011;41249;47.838;16.490;2023-01-19T15:33:41;8.55;;;4.63;;
55372;SDS011;41249;47.838;16.490;2023-01-19T15:36:15;10.52;;;5.10;;
55372;SDS011;41249;47.838;16.490;2023-01-19T15:38:44;10.57;;;4.70;;
55372;SDS011;41249;47.838;16.490;2023-01-19T15:41:12;11.23;;;5.22;;
55372;SDS011;41249;47.838;16.490;2023-01-19T15:43:39;6.05;;;4.45;;
55372;SDS011;41249;47.838;16.490;2023-01-19T15:46:06;6.40;;;3.95;;
55372;SDS011;41249;47.838;16.490;2023-01-19T15:48:33;6.47;;;4.22;;
55372;SDS011;41249;47.838;16.490;2023-01-19T15:50:59;10.88;;;4.35;;
55372;SDS011;41249;47.838;16.490;2023-01-19T15:53:26;6.15;;;4.20;;
55372;SDS011;41249;47.838;16.490;2023-01-19T15:55:53;7.15;;;4.00;;
55372;SDS011;41249;47.838;16.490;2023-01-19T15:58:22;9.88;;;5.07;;
55372;SDS011;41249;47.838;16.490;2023-01-19T16:00:53;8.55;;;4.47;;
55372;SDS011;41249;47.838;16.490;2023-01-19T16:03:22;9.63;;;4.45;;
55372;SDS011;41249;47.838;16.490;2023-01-19T16:05:49;6.75;;;4.32;;
55372;SDS011;41249;47.838;16.490;2023-01-19T16:08:16;5.22;;;3.72;;
55372;SDS011;41249;47.838;16.490;2023-01-19T16:10:43;5.47;;;3.58;;
55372;SDS011;41249;47.838;16.490;2023-01-19T16:13:10;7.10;;;3.80;;
55372;SDS011;41249;47.838;16.490;2023-01-19T16:15:37;7.85;;;4.30;;
55372;SDS011;41249;47.838;16.490;2023-01-19T16:18:04;5.53;;;3.67;;